Share

Mount Sterling, KY

Old Fogg Pike (KKYMOUNT6) Elev 1032 ft | 38.03 °N, 83.97 °W | Change Station
Active Advisory: Special Statement

Current weather conditions updated 2 seconds ago

Clear
Clear
52.3 °F
Feels Like 52.3 °F
N
0.0
Wind Variable Wind from NNE
Gusts 0.0 mph
Sunrise 6:53 AM
Sunset 8:16 PM
Moon Waning Gibbous

Today is forecast to be Warmer than yesterday.

Pressure 30.23 in
Visibility 10.0 miles
Clouds Clear
Dew Point 38 °F
Humidity 57%
Rainfall 0.00 in
Snow Depth Not available.
UV 0 out of 16
Pollen 11.00 out of 12
Air Quality Not available.
Flu Activity Sporadic
METAR KIOB 200555Z AUTO 07003KT 10SM CLR 10/03 A3023 RMK AO2

More Conditions Fewer Conditions

Pressure 30.23 in
Visibility 10.0 miles
Clouds Clear
Dew Point 38 °F
Humidity 57%
Rainfall 0.00 in
Snow Depth Not available.
UV 0 out of 16
Pollen 11.00 out of 12
Air Quality Not available.
Flu Activity Sporadic
METAR KIOB 200555Z AUTO 07003KT 10SM CLR 10/03 A3023 RMK AO2

More Conditions Fewer Conditions

10-Day Weather Forecast

Almanac

Astronomy

Apr. 20, 2014 Rise Set
Actual Time 6:53 AM EDT 8:16 PM EDT
Civil Twilight 6:25 AM EDT 8:44 PM EDT
Nautical Twilight 5:52 AM EDT 9:17 PM EDT
Astronomical Twilight 5:18 AM EDT 9:51 PM EDT
Moon 12:53 AM EDT 11:14 AM EDT
Length of Visible Light 14h 18m
Length of Day
13h 23m
Tomorrow will be 2m 17s longer.
Waning Gibbous, 73% of the Moon is Illuminated
Today
Waning Gibbous
Apr 22
Last Quarter
Apr 29
New
May 6
First Quarter
May 14
Full

Today's Extremes

State Highs State Lows

Community

  • Sunny day at the coast-Cape Arago Lighthouse
    Sunny day at the coast-Cape Arago Lighthouse
  • Cherry Blossoms
    Cherry Blossoms
  • White-Crowned Sparrow
    White-Crowned Sparrow
  • New Day
    New Day
  • Happy Easter!
    Happy Easter!

WunderPhotos

Upload Photos

1,703,085 photos uploaded!

WunderBlogs® & News

Nearby

Snow Depth

Station Depth Elevation
No new snow has been reported.

Coastal Water Temperatures

Place Temperature
No Stations Reporting

Earthquake Activity

City Distance Mag. Time & Date
No recent earthquake activity has been reported nearby.
Minimum magnitude displayed is 2.5.

Nearby Weather Stations

Station Location Temp. Windchill Dew Point Humidity Wind Precip. Elev Updated Type
Old Fogg Pike, Mount Sterling, KY 52.3 °F - 38 °F 57% NNE  at  0.0 mph 0.00 in / hr 1032 ft 2:05 AM EDT Rapid Fire
Ridge Road Jet Center, Owingsville, KY 50.5 °F - 38 °F 62% NE  at  3.7 mph - / hr 899 ft 1:54 AM EDT Normal
Ruckerville, Winchester, KY 54.7 °F - 38 °F 53% ESE  at  0.0 mph 0.00 in / hr 1007 ft 2:00 AM EDT Normal
SLOAN, Irvine, KY 47.5 °F 48 °F 38 °F 68% WNW  at  0.0 mph - / hr 791 ft 2:01 AM EDT Normal
KYTC_RWIS Mountain Parkway @ MP 36 (Slad, Pine Ridge, KY 57 °F - 31 °F 36% NE  at  4 mph 0.00 in / hr 1253 ft 12:05 AM EDT MADIS

Show More Stations Show Fewer Stations

What do you think?

We're not finished. Please let us know what you like, what you don't like, and what you are still missing.